Greenfield Park, New York
Current Conditions -  °F | °C
As of 9:15 PM on Saturday 22 Nov 2014 (Local Time) from KMSV Reporting Station
Overcast Overcast  
Wind Chill: 32°   Ceiling: 4600
Heat Index: 36°   Visibility: 10mi
Dew Point: 21°   Wind: 5mph
Humidity: 56%   Direction: 260°W
Pressure: 30.14"   Gusts: NA
Location:  41.73°N, 74.49°W
Report Text: KMSV 230215Z AUTO 26004KT 10SM FEW038 BKN046 OVC050 02/M06 A3014 RMK AO1
Loading
Personal Weather Stations






























Interactive Weather Map New forecast layout! Learn more

10-Day Weather Forecast

Advertisements
Track Severe Weather on mobile